New Salem, MA (01355)

5:30 AM EDT on May 06, 2015 (GMT -0400)
North main St | | Change Station
CLOSE
Current Station
Personal Weather Station
Location: New Salem, MA
Elevation: 863 ft
Nearby Weather Stations

Elev 863 ft 42.53 °N, 72.34 °W | Updated 1 second ago

Partly Cloudy
Partly Cloudy
44.8 °F
Feels Like 45 °F
N
0.0
Wind Variable Wind from North
Gusts 1.6 mph

Today
High -- | Low -- °F
--% Chance of Precip.
Yesterday
High -- | Low -- °F
Precip. -- in
5:38 AM 7:54 PM
Waning Gibbous, 95% visible
Pressure 30.27 in
Visibility 10.0 miles
Clouds Clear
Windchill 45 °F
Dew Point 41 °F
Humidity 85%
Rainfall 0.00 in
Snow Depth Not available.
UV 0 out of 12
Pollen 9.70 out of 12
Air Quality Not available.
Flu Activity Widespread
METAR KORE 060852Z AUTO 00000KT 10SM CLR 06/04 A3027 RMK AO2 SLP250 T00610044 53001

More Conditions Fewer Conditions

Pressure 30.27 in
Visibility 10.0 miles
Clouds Clear
Windchill 45 °F
Dew Point 41 °F
Humidity 85%
Rainfall 0.00 in
Snow Depth Not available.
UV 0 out of 12
Pollen 9.70 out of 12
Air Quality Not available.
Flu Activity Widespread
METAR KORE 060852Z AUTO 00000KT 10SM CLR 06/04 A3027 RMK AO2 SLP250 T00610044 53001

More Conditions Fewer Conditions

10-Day Weather Forecast

Almanac

Astronomy

May. 06, 2015 Rise Set
Actual Time
Civil Twilight
Nautical Twilight
Astronomical Twilight
Moon
Length of Visible Light
Length of Day
Tomorrow will be .
, % of the Moon is Illuminated

Today's Extremes

State Highs State Lows

Community

WunderPhotos

Upload Photos

1,818,859 photos uploaded!

WunderBlogs® & News

Nearby

Air Quality

  Air Quality AQ Index Pollutant
Not available.

Snow Depth

Station Depth Elevation

Earthquake Activity

City Distance Mag. Time & Date
Minimum magnitude displayed is 2.5.

Coastal Water Temperatures

Place Temperature

Stations

Nearby Weather Stations

Station Location Temp. Windchill Dew Point Humidity Wind Precip. Elev Updated Type